sensor_id;sensor_type;location;lat;lon;timestamp;temperature;humidity
18797;DHT22;9526;52.612;13.300;2023-12-04T00:01:59;-3.50;99.90
18797;DHT22;9526;52.612;13.300;2023-12-04T00:04:23;-3.50;99.90
18797;DHT22;9526;52.612;13.300;2023-12-04T00:06:46;-3.50;99.90
18797;DHT22;9526;52.612;13.300;2023-12-04T00:09:10;-3.50;99.90
18797;DHT22;9526;52.612;13.300;2023-12-04T00:11:34;-3.60;99.90
18797;DHT22;9526;52.612;13.300;2023-12-04T00:13:58;-3.60;99.90
18797;DHT22;9526;52.612;13.300;2023-12-04T00:16:22;-3.70;99.90
18797;DHT22;9526;52.612;13.300;2023-12-04T00:18:47;-3.70;99.90
18797;DHT22;9526;52.612;13.300;2023-12-04T00:21:11;-3.80;99.90
18797;DHT22;9526;52.612;13.300;2023-12-04T00:23:36;-3.80;99.90
18797;DHT22;9526;52.612;13.300;2023-12-04T00:26:00;-3.80;99.90
18797;DHT22;9526;52.612;13.300;2023-12-04T00:28:24;-3.80;99.90
18797;DHT22;9526;52.612;13.300;2023-12-04T00:30:48;-3.90;99.90
18797;DHT22;9526;52.612;13.300;2023-12-04T00:33:12;-3.90;99.90
18797;DHT22;9526;52.612;13.300;2023-12-04T00:35:37;-3.90;99.90
18797;DHT22;9526;52.612;13.300;2023-12-04T00:38:01;-4.00;99.90
18797;DHT22;9526;52.612;13.300;2023-12-04T00:40:25;-3.90;99.90
18797;DHT22;9526;52.612;13.300;2023-12-04T00:42:48;-4.00;99.90
18797;DHT22;9526;52.612;13.300;2023-12-04T00:45:12;-3.90;99.90
18797;DHT22;9526;52.612;13.300;2023-12-04T00:47:36;-4.10;99.90
18797;DHT22;9526;52.612;13.300;2023-12-04T00:50:00;-4.10;99.90
18797;DHT22;9526;52.612;13.300;2023-12-04T00:52:25;-4.20;99.90
18797;DHT22;9526;52.612;13.300;2023-12-04T00:54:49;-4.20;99.90
18797;DHT22;9526;52.612;13.300;2023-12-04T00:57:12;-4.20;99.90
18797;DHT22;9526;52.612;13.300;2023-12-04T00:59:36;-4.20;99.90
18797;DHT22;9526;52.612;13.300;2023-12-04T01:02:00;-4.30;99.90
18797;DHT22;9526;52.612;13.300;2023-12-04T01:04:24;-4.30;99.90
18797;DHT22;9526;52.612;13.300;2023-12-04T01:06:48;-4.20;99.90
18797;DHT22;9526;52.612;13.300;2023-12-04T01:09:13;-4.30;99.90
18797;DHT22;9526;52.612;13.300;2023-12-04T01:11:37;-4.40;99.90
18797;DHT22;9526;52.612;13.300;2023-12-04T01:14:01;-4.40;99.90
18797;DHT22;9526;52.612;13.300;2023-12-04T01:16:24;-4.30;99.90
18797;DHT22;9526;52.612;13.300;2023-12-04T01:18:48;-4.40;99.90
18797;DHT22;9526;52.612;13.300;2023-12-04T01:21:12;-4.40;99.90
18797;DHT22;9526;52.612;13.300;2023-12-04T01:23:36;-4.40;99.90
18797;DHT22;9526;52.612;13.300;2023-12-04T01:26:01;-4.40;99.90
18797;DHT22;9526;52.612;13.300;2023-12-04T01:28:25;-4.50;99.90
18797;DHT22;9526;52.612;13.300;2023-12-04T01:30:49;-4.50;99.90
18797;DHT22;9526;52.612;13.300;2023-12-04T01:33:13;-4.50;99.90
18797;DHT22;9526;52.612;13.300;2023-12-04T01:35:37;-4.50;99.90
18797;DHT22;9526;52.612;13.300;2023-12-04T01:38:00;-4.60;99.90
18797;DHT22;9526;52.612;13.300;2023-12-04T01:40:24;-4.50;99.90
18797;DHT22;9526;52.612;13.300;2023-12-04T01:42:50;-4.60;99.90
18797;DHT22;9526;52.612;13.300;2023-12-04T01:45:14;-4.60;99.90
18797;DHT22;9526;52.612;13.300;2023-12-04T01:47:38;-4.70;99.90
18797;DHT22;9526;52.612;13.300;2023-12-04T01:50:03;-4.60;99.90
18797;DHT22;9526;52.612;13.300;2023-12-04T01:52:27;-4.70;99.90
18797;DHT22;9526;52.612;13.300;2023-12-04T01:54:51;-4.70;99.90
18797;DHT22;9526;52.612;13.300;2023-12-04T01:57:15;-4.70;99.90
18797;DHT22;9526;52.612;13.300;2023-12-04T01:59:40;-4.70;99.90
18797;DHT22;9526;52.612;13.300;2023-12-04T02:02:04;-4.80;99.90
18797;DHT22;9526;52.612;13.300;2023-12-04T02:04:29;-4.70;99.90
18797;DHT22;9526;52.612;13.300;2023-12-04T02:06:54;-4.70;99.90
18797;DHT22;9526;52.612;13.300;2023-12-04T02:09:18;-4.70;99.90
18797;DHT22;9526;52.612;13.300;2023-12-04T02:11:42;-4.70;99.90
18797;DHT22;9526;52.612;13.300;2023-12-04T02:14:06;-4.70;99.90
18797;DHT22;9526;52.612;13.300;2023-12-04T02:16:32;-4.70;99.90
18797;DHT22;9526;52.612;13.300;2023-12-04T02:19:01;-4.70;99.90
18797;DHT22;9526;52.612;13.300;2023-12-04T02:21:25;-4.70;99.90
18797;DHT22;9526;52.612;13.300;2023-12-04T02:23:51;-4.80;99.90
18797;DHT22;9526;52.612;13.300;2023-12-04T02:26:16;-4.80;99.90
18797;DHT22;9526;52.612;13.300;2023-12-04T02:28:45;-4.80;99.90
18797;DHT22;9526;52.612;13.300;2023-12-04T02:31:10;-4.60;99.90
18797;DHT22;9526;52.612;13.300;2023-12-04T02:33:35;-4.70;99.90
18797;DHT22;9526;52.612;13.300;2023-12-04T02:36:01;-4.80;99.90
18797;DHT22;9526;52.612;13.300;2023-12-04T02:38:26;-4.80;99.90
18797;DHT22;9526;52.612;13.300;2023-12-04T02:40:51;-4.70;99.90
18797;DHT22;9526;52.612;13.300;2023-12-04T02:43:15;-4.80;99.90
18797;DHT22;9526;52.612;13.300;2023-12-04T02:45:39;-4.80;99.90
18797;DHT22;9526;52.612;13.300;2023-12-04T02:48:03;-4.70;99.90
18797;DHT22;9526;52.612;13.300;2023-12-04T02:50:27;-4.80;99.90
18797;DHT22;9526;52.612;13.300;2023-12-04T02:52:51;-4.60;99.90
18797;DHT22;9526;52.612;13.300;2023-12-04T02:55:15;-4.60;99.90
18797;DHT22;9526;52.612;13.300;2023-12-04T02:57:41;-4.80;99.90
18797;DHT22;9526;52.612;13.300;2023-12-04T03:00:06;-4.80;99.90
18797;DHT22;9526;52.612;13.300;2023-12-04T03:02:31;-4.80;99.90
18797;DHT22;9526;52.612;13.300;2023-12-04T03:04:55;-4.80;99.90
18797;DHT22;9526;52.612;13.300;2023-12-04T03:07:19;-4.80;99.90
18797;DHT22;9526;52.612;13.300;2023-12-04T03:09:43;-4.60;99.90
18797;DHT22;9526;52.612;13.300;2023-12-04T03:12:10;-4.80;99.90
18797;DHT22;9526;52.612;13.300;2023-12-04T03:14:36;-4.80;99.90
18797;DHT22;9526;52.612;13.300;2023-12-04T03:16:59;-4.80;99.90
18797;DHT22;9526;52.612;13.300;2023-12-04T03:19:22;-4.80;99.90
18797;DHT22;9526;52.612;13.300;2023-12-04T03:21:46;-4.80;99.90
18797;DHT22;9526;52.612;13.300;2023-12-04T03:24:10;-4.80;99.90
18797;DHT22;9526;52.612;13.300;2023-12-04T03:26:35;-4.80;99.90
18797;DHT22;9526;52.612;13.300;2023-12-04T03:28:58;-4.90;99.90
18797;DHT22;9526;52.612;13.300;2023-12-04T03:31:24;-4.80;99.90
18797;DHT22;9526;52.612;13.300;2023-12-04T03:33:48;-4.80;99.90
18797;DHT22;9526;52.612;13.300;2023-12-04T03:36:12;-4.80;99.90
18797;DHT22;9526;52.612;13.300;2023-12-04T03:38:36;-4.80;99.90
18797;DHT22;9526;52.612;13.300;2023-12-04T03:41:00;-4.80;99.90
18797;DHT22;9526;52.612;13.300;2023-12-04T03:43:24;-4.80;99.90
18797;DHT22;9526;52.612;13.300;2023-12-04T03:45:47;-4.80;99.90
18797;DHT22;9526;52.612;13.300;2023-12-04T03:48:13;-4.80;99.90
18797;DHT22;9526;52.612;13.300;2023-12-04T03:50:37;-4.80;99.90
18797;DHT22;9526;52.612;13.300;2023-12-04T03:53:00;-4.80;99.90
18797;DHT22;9526;52.612;13.300;2023-12-04T03:55:24;-4.80;99.90
18797;DHT22;9526;52.612;13.300;2023-12-04T03:57:48;-4.70;99.90
18797;DHT22;9526;52.612;13.300;2023-12-04T04:00:13;-4.80;99.90
18797;DHT22;9526;52.612;13.300;2023-12-04T04:02:39;-4.70;99.90
18797;DHT22;9526;52.612;13.300;2023-12-04T04:05:05;-4.80;99.90
18797;DHT22;9526;52.612;13.300;2023-12-04T04:07:29;-4.70;99.90
18797;DHT22;9526;52.612;13.300;2023-12-04T04:09:53;-4.70;99.90
18797;DHT22;9526;52.612;13.300;2023-12-04T04:12:17;-4.70;99.90
18797;DHT22;9526;52.612;13.300;2023-12-04T04:14:41;-4.60;99.90
18797;DHT22;9526;52.612;13.300;2023-12-04T04:17:04;-4.50;99.90
18797;DHT22;9526;52.612;13.300;2023-12-04T04:19:28;-4.60;99.90
18797;DHT22;9526;52.612;13.300;2023-12-04T04:21:54;-4.50;99.90
18797;DHT22;9526;52.612;13.300;2023-12-04T04:24:17;-4.50;99.90
18797;DHT22;9526;52.612;13.300;2023-12-04T04:26:41;-4.60;99.90
18797;DHT22;9526;52.612;13.300;2023-12-04T04:29:05;-4.50;99.90
18797;DHT22;9526;52.612;13.300;2023-12-04T04:31:29;-4.40;99.90
18797;DHT22;9526;52.612;13.300;2023-12-04T04:33:53;-4.50;99.90
18797;DHT22;9526;52.612;13.300;2023-12-04T04:36:17;-4.40;99.90
18797;DHT22;9526;52.612;13.300;2023-12-04T04:38:42;-4.40;99.90
18797;DHT22;9526;52.612;13.300;2023-12-04T04:41:06;-4.40;99.90
18797;DHT22;9526;52.612;13.300;2023-12-04T04:43:29;-4.40;99.90
18797;DHT22;9526;52.612;13.300;2023-12-04T04:45:54;-4.30;99.90
18797;DHT22;9526;52.612;13.300;2023-12-04T04:48:18;-4.30;99.90
18797;DHT22;9526;52.612;13.300;2023-12-04T04:50:43;-4.30;99.90
18797;DHT22;9526;52.612;13.300;2023-12-04T04:53:06;-4.30;99.90
18797;DHT22;9526;52.612;13.300;2023-12-04T04:55:31;-4.30;99.90
18797;DHT22;9526;52.612;13.300;2023-12-04T04:58:10;-4.00;99.90
18797;DHT22;9526;52.612;13.300;2023-12-04T05:00:34;-4.10;99.90
18797;DHT22;9526;52.612;13.300;2023-12-04T05:02:57;-4.10;99.90
18797;DHT22;9526;52.612;13.300;2023-12-04T05:05:21;-4.00;99.90
18797;DHT22;9526;52.612;13.300;2023-12-04T05:07:45;-4.00;99.90
18797;DHT22;9526;52.612;13.300;2023-12-04T05:10:09;-4.00;99.90
18797;DHT22;9526;52.612;13.300;2023-12-04T05:12:34;-3.90;99.90
18797;DHT22;9526;52.612;13.300;2023-12-04T05:14:58;-3.90;99.90
18797;DHT22;9526;52.612;13.300;2023-12-04T05:17:22;-3.80;99.90
18797;DHT22;9526;52.612;13.300;2023-12-04T05:19:46;-3.90;99.90
18797;DHT22;9526;52.612;13.300;2023-12-04T05:22:11;-3.90;99.90
18797;DHT22;9526;52.612;13.300;2023-12-04T05:24:34;-3.90;99.90
18797;DHT22;9526;52.612;13.300;2023-12-04T05:26:59;-3.80;99.90
18797;DHT22;9526;52.612;13.300;2023-12-04T05:29:24;-3.90;99.90
18797;DHT22;9526;52.612;13.300;2023-12-04T05:31:47;-3.80;99.90
18797;DHT22;9526;52.612;13.300;2023-12-04T05:34:11;-3.90;99.90
18797;DHT22;9526;52.612;13.300;2023-12-04T05:36:35;-3.90;99.90
18797;DHT22;9526;52.612;13.300;2023-12-04T05:38:59;-3.80;99.90
18797;DHT22;9526;52.612;13.300;2023-12-04T05:41:23;-3.90;99.90
18797;DHT22;9526;52.612;13.300;2023-12-04T05:43:46;-4.00;99.90
18797;DHT22;9526;52.612;13.300;2023-12-04T05:46:11;-4.00;99.90
18797;DHT22;9526;52.612;13.300;2023-12-04T05:48:35;-4.00;99.90
18797;DHT22;9526;52.612;13.300;2023-12-04T05:50:59;-4.00;99.90
18797;DHT22;9526;52.612;13.300;2023-12-04T05:53:22;-3.90;99.90
18797;DHT22;9526;52.612;13.300;2023-12-04T05:55:46;-4.00;99.90
18797;DHT22;9526;52.612;13.300;2023-12-04T05:58:10;-3.90;99.90
18797;DHT22;9526;52.612;13.300;2023-12-04T06:00:34;-3.80;99.90
18797;DHT22;9526;52.612;13.300;2023-12-04T06:02:59;-3.90;99.90
18797;DHT22;9526;52.612;13.300;2023-12-04T06:05:23;-3.90;99.90
18797;DHT22;9526;52.612;13.300;2023-12-04T06:07:47;-3.80;99.90
18797;DHT22;9526;52.612;13.300;2023-12-04T06:10:10;-3.80;99.90
18797;DHT22;9526;52.612;13.300;2023-12-04T06:12:34;-3.80;99.90
18797;DHT22;9526;52.612;13.300;2023-12-04T06:14:58;-3.70;99.90
18797;DHT22;9526;52.612;13.300;2023-12-04T06:17:22;-3.70;99.90
18797;DHT22;9526;52.612;13.300;2023-12-04T06:19:47;-3.60;99.90
18797;DHT22;9526;52.612;13.300;2023-12-04T06:22:11;-3.60;99.90
18797;DHT22;9526;52.612;13.300;2023-12-04T06:24:41;-3.60;99.90
18797;DHT22;9526;52.612;13.300;2023-12-04T06:27:06;-3.60;99.90
18797;DHT22;9526;52.612;13.300;2023-12-04T06:29:35;-3.50;99.90
18797;DHT22;9526;52.612;13.300;2023-12-04T06:31:59;-3.50;99.90
18797;DHT22;9526;52.612;13.300;2023-12-04T06:34:24;-3.50;99.90
18797;DHT22;9526;52.612;13.300;2023-12-04T06:36:50;-3.40;99.90
18797;DHT22;9526;52.612;13.300;2023-12-04T06:39:16;-3.40;99.90
18797;DHT22;9526;52.612;13.300;2023-12-04T06:41:41;-3.30;99.90
18797;DHT22;9526;52.612;13.300;2023-12-04T06:44:06;-3.40;99.90
18797;DHT22;9526;52.612;13.300;2023-12-04T06:46:31;-3.30;99.90
18797;DHT22;9526;52.612;13.300;2023-12-04T06:48:59;-3.20;99.90
18797;DHT22;9526;52.612;13.300;2023-12-04T06:51:23;-3.30;99.90
18797;DHT22;9526;52.612;13.300;2023-12-04T06:53:48;-3.10;99.90
18797;DHT22;9526;52.612;13.300;2023-12-04T06:56:12;-3.20;99.90
18797;DHT22;9526;52.612;13.300;2023-12-04T06:58:40;-3.10;99.90
18797;DHT22;9526;52.612;13.300;2023-12-04T07:01:04;-3.10;99.90
18797;DHT22;9526;52.612;13.300;2023-12-04T07:03:28;-3.10;99.90
18797;DHT22;9526;52.612;13.300;2023-12-04T07:05:51;-3.10;99.90
18797;DHT22;9526;52.612;13.300;2023-12-04T07:08:16;-3.00;99.90
18797;DHT22;9526;52.612;13.300;2023-12-04T07:10:41;-2.80;99.90
18797;DHT22;9526;52.612;13.300;2023-12-04T07:13:05;-2.70;99.90
18797;DHT22;9526;52.612;13.300;2023-12-04T07:15:29;-2.90;99.90
18797;DHT22;9526;52.612;13.300;2023-12-04T07:17:53;-2.90;99.90
18797;DHT22;9526;52.612;13.300;2023-12-04T07:20:19;-2.60;99.90
18797;DHT22;9526;52.612;13.300;2023-12-04T07:22:44;-2.80;99.90
18797;DHT22;9526;52.612;13.300;2023-12-04T07:25:08;-2.70;99.90
18797;DHT22;9526;52.612;13.300;2023-12-04T07:27:33;-2.60;99.90
18797;DHT22;9526;52.612;13.300;2023-12-04T07:29:58;-2.60;99.90
18797;DHT22;9526;52.612;13.300;2023-12-04T07:32:22;-2.60;99.90
18797;DHT22;9526;52.612;13.300;2023-12-04T07:34:45;-2.50;99.90
18797;DHT22;9526;52.612;13.300;2023-12-04T07:37:09;-2.50;99.90
18797;DHT22;9526;52.612;13.300;2023-12-04T07:39:33;-2.50;99.90
18797;DHT22;9526;52.612;13.300;2023-12-04T07:41:57;-2.40;99.90
18797;DHT22;9526;52.612;13.300;2023-12-04T07:44:35;-2.30;99.90
18797;DHT22;9526;52.612;13.300;2023-12-04T07:46:59;-2.30;99.90
18797;DHT22;9526;52.612;13.300;2023-12-04T07:49:23;-2.10;99.90
18797;DHT22;9526;52.612;13.300;2023-12-04T07:51:46;-2.20;99.90
18797;DHT22;9526;52.612;13.300;2023-12-04T07:54:11;-2.20;99.90
18797;DHT22;9526;52.612;13.300;2023-12-04T07:56:34;-2.10;99.90
18797;DHT22;9526;52.612;13.300;2023-12-04T07:58:58;-2.10;99.90
18797;DHT22;9526;52.612;13.300;2023-12-04T08:01:24;-2.00;99.90
18797;DHT22;9526;52.612;13.300;2023-12-04T08:03:49;-2.00;99.90
18797;DHT22;9526;52.612;13.300;2023-12-04T08:06:12;-1.90;99.90
18797;DHT22;9526;52.612;13.300;2023-12-04T08:08:38;-1.90;99.90
18797;DHT22;9526;52.612;13.300;2023-12-04T08:11:01;-1.80;99.90
18797;DHT22;9526;52.612;13.300;2023-12-04T08:13:25;-1.70;99.90
18797;DHT22;9526;52.612;13.300;2023-12-04T08:15:49;-1.70;99.90
18797;DHT22;9526;52.612;13.300;2023-12-04T08:18:14;-1.60;99.90
18797;DHT22;9526;52.612;13.300;2023-12-04T08:20:38;-1.50;99.90
18797;DHT22;9526;52.612;13.300;2023-12-04T08:23:03;-1.40;99.90
18797;DHT22;9526;52.612;13.300;2023-12-04T08:25:27;-1.40;99.90
18797;DHT22;9526;52.612;13.300;2023-12-04T08:27:52;-1.30;99.90
18797;DHT22;9526;52.612;13.300;2023-12-04T08:30:15;-1.30;99.90
18797;DHT22;9526;52.612;13.300;2023-12-04T08:32:39;-1.20;99.90
18797;DHT22;9526;52.612;13.300;2023-12-04T08:35:05;-1.10;99.90
18797;DHT22;9526;52.612;13.300;2023-12-04T08:37:29;-1.10;99.90
18797;DHT22;9526;52.612;13.300;2023-12-04T08:39:53;-1.00;99.90
18797;DHT22;9526;52.612;13.300;2023-12-04T08:42:19;-0.90;99.90
18797;DHT22;9526;52.612;13.300;2023-12-04T08:44:45;-0.90;99.90
18797;DHT22;9526;52.612;13.300;2023-12-04T08:47:09;-0.80;99.90
18797;DHT22;9526;52.612;13.300;2023-12-04T08:49:34;-0.80;99.90
18797;DHT22;9526;52.612;13.300;2023-12-04T08:52:10;-0.70;99.90
18797;DHT22;9526;52.612;13.300;2023-12-04T08:54:34;-0.70;99.90
18797;DHT22;9526;52.612;13.300;2023-12-04T08:56:58;-0.70;99.90
18797;DHT22;9526;52.612;13.300;2023-12-04T08:59:24;-0.60;99.90
18797;DHT22;9526;52.612;13.300;2023-12-04T09:01:48;-0.60;99.90
18797;DHT22;9526;52.612;13.300;2023-12-04T09:04:12;-0.60;99.90
18797;DHT22;9526;52.612;13.300;2023-12-04T09:06:38;-0.50;99.90
18797;DHT22;9526;52.612;13.300;2023-12-04T09:09:06;-0.40;99.90
18797;DHT22;9526;52.612;13.300;2023-12-04T09:11:34;-0.40;99.90
18797;DHT22;9526;52.612;13.300;2023-12-04T09:13:58;-0.40;99.90
18797;DHT22;9526;52.612;13.300;2023-12-04T09:16:22;-0.30;99.90
18797;DHT22;9526;52.612;13.300;2023-12-04T09:18:47;-0.30;99.90
18797;DHT22;9526;52.612;13.300;2023-12-04T09:21:11;-0.20;99.90
18797;DHT22;9526;52.612;13.300;2023-12-04T09:23:35;-0.20;99.90
18797;DHT22;9526;52.612;13.300;2023-12-04T09:26:00;-0.20;99.90
18797;DHT22;9526;52.612;13.300;2023-12-04T09:28:23;-0.10;99.90
18797;DHT22;9526;52.612;13.300;2023-12-04T09:30:47;-0.10;99.90
18797;DHT22;9526;52.612;13.300;2023-12-04T09:33:11;0.00;99.90
18797;DHT22;9526;52.612;13.300;2023-12-04T09:35:34;0.00;99.90
18797;DHT22;9526;52.612;13.300;2023-12-04T09:37:58;0.10;99.90
18797;DHT22;9526;52.612;13.300;2023-12-04T09:40:22;0.10;99.90
18797;DHT22;9526;52.612;13.300;2023-12-04T09:42:48;0.10;99.90
18797;DHT22;9526;52.612;13.300;2023-12-04T09:45:12;0.20;99.90
18797;DHT22;9526;52.612;13.300;2023-12-04T09:47:36;0.30;99.90
18797;DHT22;9526;52.612;13.300;2023-12-04T09:50:00;0.30;99.90
18797;DHT22;9526;52.612;13.300;2023-12-04T09:52:27;0.40;99.90
18797;DHT22;9526;52.612;13.300;2023-12-04T09:54:52;0.40;99.90
18797;DHT22;9526;52.612;13.300;2023-12-04T09:57:16;0.40;99.90
18797;DHT22;9526;52.612;13.300;2023-12-04T09:59:43;0.50;99.90
18797;DHT22;9526;52.612;13.300;2023-12-04T10:02:08;0.50;99.90
18797;DHT22;9526;52.612;13.300;2023-12-04T10:04:32;0.50;99.90
18797;DHT22;9526;52.612;13.300;2023-12-04T10:06:56;0.50;99.90
18797;DHT22;9526;52.612;13.300;2023-12-04T10:09:20;0.50;99.90
18797;DHT22;9526;52.612;13.300;2023-12-04T10:11:45;0.60;99.90
18797;DHT22;9526;52.612;13.300;2023-12-04T10:14:14;0.70;99.90
18797;DHT22;9526;52.612;13.300;2023-12-04T10:16:40;0.50;99.90
18797;DHT22;9526;52.612;13.300;2023-12-04T10:19:19;0.50;99.90
18797;DHT22;9526;52.612;13.300;2023-12-04T10:21:46;0.50;99.90
18797;DHT22;9526;52.612;13.300;2023-12-04T10:24:11;0.40;99.90
18797;DHT22;9526;52.612;13.300;2023-12-04T10:26:35;0.50;99.90
18797;DHT22;9526;52.612;13.300;2023-12-04T10:29:02;0.50;99.90
18797;DHT22;9526;52.612;13.300;2023-12-04T10:31:29;0.60;99.90
18797;DHT22;9526;52.612;13.300;2023-12-04T10:33:57;0.70;99.90
18797;DHT22;9526;52.612;13.300;2023-12-04T10:36:21;0.70;99.90
18797;DHT22;9526;52.612;13.300;2023-12-04T10:38:44;0.80;99.90
18797;DHT22;9526;52.612;13.300;2023-12-04T10:41:12;0.90;99.90
18797;DHT22;9526;52.612;13.300;2023-12-04T10:43:36;0.90;99.90
18797;DHT22;9526;52.612;13.300;2023-12-04T10:46:18;1.00;99.90
18797;DHT22;9526;52.612;13.300;2023-12-04T10:48:45;1.10;99.90
18797;DHT22;9526;52.612;13.300;2023-12-04T10:51:11;1.20;99.90
18797;DHT22;9526;52.612;13.300;2023-12-04T10:53:35;1.10;99.90
18797;DHT22;9526;52.612;13.300;2023-12-04T10:56:01;1.10;99.90
18797;DHT22;9526;52.612;13.300;2023-12-04T10:58:27;1.20;99.90
18797;DHT22;9526;52.612;13.300;2023-12-04T11:00:51;1.20;99.90
18797;DHT22;9526;52.612;13.300;2023-12-04T11:03:20;1.10;99.90
18797;DHT22;9526;52.612;13.300;2023-12-04T11:05:47;1.00;99.90
18797;DHT22;9526;52.612;13.300;2023-12-04T11:08:17;0.90;99.90
18797;DHT22;9526;52.612;13.300;2023-12-04T11:10:52;0.90;99.90
18797;DHT22;9526;52.612;13.300;2023-12-04T11:13:22;0.90;99.90
18797;DHT22;9526;52.612;13.300;2023-12-04T11:15:50;0.90;99.90
18797;DHT22;9526;52.612;13.300;2023-12-04T11:18:15;1.00;99.90
18797;DHT22;9526;52.612;13.300;2023-12-04T11:20:44;1.20;99.90
18797;DHT22;9526;52.612;13.300;2023-12-04T11:23:14;1.20;99.90
18797;DHT22;9526;52.612;13.300;2023-12-04T11:25:38;1.10;99.90
18797;DHT22;9526;52.612;13.300;2023-12-04T11:28:02;1.10;99.90
18797;DHT22;9526;52.612;13.300;2023-12-04T11:30:30;1.10;99.90
18797;DHT22;9526;52.612;13.300;2023-12-04T11:32:54;1.10;99.90
18797;DHT22;9526;52.612;13.300;2023-12-04T11:35:20;1.10;99.90
18797;DHT22;9526;52.612;13.300;2023-12-04T11:37:44;1.10;99.90
18797;DHT22;9526;52.612;13.300;2023-12-04T11:40:11;1.20;99.90
18797;DHT22;9526;52.612;13.300;2023-12-04T11:42:36;1.20;99.90
18797;DHT22;9526;52.612;13.300;2023-12-04T11:45:01;1.10;99.90
18797;DHT22;9526;52.612;13.300;2023-12-04T11:47:28;1.10;99.90
18797;DHT22;9526;52.612;13.300;2023-12-04T11:49:52;1.10;99.90
18797;DHT22;9526;52.612;13.300;2023-12-04T11:52:16;1.20;99.90
18797;DHT22;9526;52.612;13.300;2023-12-04T11:54:57;1.20;99.90
18797;DHT22;9526;52.612;13.300;2023-12-04T11:57:24;1.20;99.90
18797;DHT22;9526;52.612;13.300;2023-12-04T11:59:48;1.20;99.90
18797;DHT22;9526;52.612;13.300;2023-12-04T12:02:12;1.20;99.90
18797;DHT22;9526;52.612;13.300;2023-12-04T12:04:37;1.30;99.90
18797;DHT22;9526;52.612;13.300;2023-12-04T12:07:03;1.40;99.90
18797;DHT22;9526;52.612;13.300;2023-12-04T12:09:29;1.30;99.90
18797;DHT22;9526;52.612;13.300;2023-12-04T12:11:53;1.30;99.90
18797;DHT22;9526;52.612;13.300;2023-12-04T12:14:21;1.30;99.90
18797;DHT22;9526;52.612;13.300;2023-12-04T12:16:45;1.20;99.90
18797;DHT22;9526;52.612;13.300;2023-12-04T12:19:08;1.30;99.90
18797;DHT22;9526;52.612;13.300;2023-12-04T12:21:32;1.20;99.90
18797;DHT22;9526;52.612;13.300;2023-12-04T12:23:56;1.20;99.90
18797;DHT22;9526;52.612;13.300;2023-12-04T12:26:20;1.20;99.90
18797;DHT22;9526;52.612;13.300;2023-12-04T12:28:45;1.20;99.90
18797;DHT22;9526;52.612;13.300;2023-12-04T12:31:10;1.20;99.90
18797;DHT22;9526;52.612;13.300;2023-12-04T12:33:34;1.10;99.90
18797;DHT22;9526;52.612;13.300;2023-12-04T12:35:58;1.20;99.90
18797;DHT22;9526;52.612;13.300;2023-12-04T12:38:26;1.20;99.90
18797;DHT22;9526;52.612;13.300;2023-12-04T12:40:51;1.30;99.90
18797;DHT22;9526;52.612;13.300;2023-12-04T12:43:15;1.20;99.90
18797;DHT22;9526;52.612;13.300;2023-12-04T12:45:39;1.20;99.90
18797;DHT22;9526;52.612;13.300;2023-12-04T12:48:05;1.30;99.90
18797;DHT22;9526;52.612;13.300;2023-12-04T12:50:29;1.30;99.90
18797;DHT22;9526;52.612;13.300;2023-12-04T12:52:52;1.20;99.90
18797;DHT22;9526;52.612;13.300;2023-12-04T12:55:23;1.20;99.90
18797;DHT22;9526;52.612;13.300;2023-12-04T12:57:47;1.20;99.90
18797;DHT22;9526;52.612;13.300;2023-12-04T13:00:12;1.20;99.90
18797;DHT22;9526;52.612;13.300;2023-12-04T13:02:37;1.30;99.90
18797;DHT22;9526;52.612;13.300;2023-12-04T13:05:03;1.30;99.90
18797;DHT22;9526;52.612;13.300;2023-12-04T13:07:29;1.40;99.90
18797;DHT22;9526;52.612;13.300;2023-12-04T13:09:52;1.40;99.90
18797;DHT22;9526;52.612;13.300;2023-12-04T13:12:16;1.50;99.90
18797;DHT22;9526;52.612;13.300;2023-12-04T13:14:40;1.40;99.90
18797;DHT22;9526;52.612;13.300;2023-12-04T13:17:04;1.40;99.90
18797;DHT22;9526;52.612;13.300;2023-12-04T13:19:28;1.40;99.90
18797;DHT22;9526;52.612;13.300;2023-12-04T13:21:55;1.30;99.90
18797;DHT22;9526;52.612;13.300;2023-12-04T13:24:19;1.30;99.90
18797;DHT22;9526;52.612;13.300;2023-12-04T13:26:42;1.30;99.90
18797;DHT22;9526;52.612;13.300;2023-12-04T13:29:06;1.30;99.90
18797;DHT22;9526;52.612;13.300;2023-12-04T13:31:30;1.40;99.90
18797;DHT22;9526;52.612;13.300;2023-12-04T13:33:55;1.40;99.90
18797;DHT22;9526;52.612;13.300;2023-12-04T13:36:18;1.30;99.90
18797;DHT22;9526;52.612;13.300;2023-12-04T13:38:43;1.20;99.90
18797;DHT22;9526;52.612;13.300;2023-12-04T13:41:07;1.10;99.90
18797;DHT22;9526;52.612;13.300;2023-12-04T13:44:02;1.10;99.90
18797;DHT22;9526;52.612;13.300;2023-12-04T13:46:25;1.10;99.90
18797;DHT22;9526;52.612;13.300;2023-12-04T13:48:52;1.10;99.90
18797;DHT22;9526;52.612;13.300;2023-12-04T13:51:15;1.10;99.90
18797;DHT22;9526;52.612;13.300;2023-12-04T13:53:40;1.10;99.90
18797;DHT22;9526;52.612;13.300;2023-12-04T13:56:09;1.10;99.90
18797;DHT22;9526;52.612;13.300;2023-12-04T13:58:47;1.00;99.90
18797;DHT22;9526;52.612;13.300;2023-12-04T14:01:16;1.00;99.90
18797;DHT22;9526;52.612;13.300;2023-12-04T14:03:45;1.00;99.90
18797;DHT22;9526;52.612;13.300;2023-12-04T14:06:10;1.00;99.90
18797;DHT22;9526;52.612;13.300;2023-12-04T14:08:36;0.90;99.90
18797;DHT22;9526;52.612;13.300;2023-12-04T14:11:00;0.90;99.90
18797;DHT22;9526;52.612;13.300;2023-12-04T14:13:25;0.90;99.90
18797;DHT22;9526;52.612;13.300;2023-12-04T14:15:50;0.90;99.90
18797;DHT22;9526;52.612;13.300;2023-12-04T14:18:13;0.90;99.90
18797;DHT22;9526;52.612;13.300;2023-12-04T14:20:37;0.90;99.90
18797;DHT22;9526;52.612;13.300;2023-12-04T14:23:01;0.80;99.90
18797;DHT22;9526;52.612;13.300;2023-12-04T14:25:26;0.80;99.90
18797;DHT22;9526;52.612;13.300;2023-12-04T14:27:50;0.80;99.90
18797;DHT22;9526;52.612;13.300;2023-12-04T14:30:15;0.70;99.90
18797;DHT22;9526;52.612;13.300;2023-12-04T14:32:40;0.70;99.90
18797;DHT22;9526;52.612;13.300;2023-12-04T14:35:21;0.70;99.90
18797;DHT22;9526;52.612;13.300;2023-12-04T14:37:48;0.70;99.90
18797;DHT22;9526;52.612;13.300;2023-12-04T14:40:13;0.70;99.90
18797;DHT22;9526;52.612;13.300;2023-12-04T14:42:37;0.60;99.90
18797;DHT22;9526;52.612;13.300;2023-12-04T14:45:01;0.70;99.90
18797;DHT22;9526;52.612;13.300;2023-12-04T14:47:26;0.70;99.90
18797;DHT22;9526;52.612;13.300;2023-12-04T14:49:50;0.60;99.90
18797;DHT22;9526;52.612;13.300;2023-12-04T14:52:17;0.60;99.90
18797;DHT22;9526;52.612;13.300;2023-12-04T14:54:43;0.60;99.90
18797;DHT22;9526;52.612;13.300;2023-12-04T14:57:34;0.50;99.90
18797;DHT22;9526;52.612;13.300;2023-12-04T15:00:33;0.50;99.90
18797;DHT22;9526;52.612;13.300;2023-12-04T15:03:15;0.50;99.90
18797;DHT22;9526;52.612;13.300;2023-12-04T15:05:55;0.50;99.90
18797;DHT22;9526;52.612;13.300;2023-12-04T15:08:58;0.50;99.90
18797;DHT22;9526;52.612;13.300;2023-12-04T15:11:38;0.50;99.90
18797;DHT22;9526;52.612;13.300;2023-12-04T15:14:33;0.50;99.90
18797;DHT22;9526;52.612;13.300;2023-12-04T15:17:04;0.50;99.90
18797;DHT22;9526;52.612;13.300;2023-12-04T15:19:41;0.40;99.90
18797;DHT22;9526;52.612;13.300;2023-12-04T15:22:12;0.50;99.90
18797;DHT22;9526;52.612;13.300;2023-12-04T15:24:35;0.40;99.90
18797;DHT22;9526;52.612;13.300;2023-12-04T15:26:59;0.40;99.90